createdAt,value
2022-08-17T00:00:43.125Z,62.02
2022-08-17T00:05:41.591Z,62.73
2022-08-17T00:10:46.025Z,62.67
2022-08-17T00:15:47.061Z,62.70
2022-08-17T00:20:47.686Z,63.45
2022-08-17T00:25:50.089Z,63.24
2022-08-17T00:30:53.504Z,63.25
2022-08-17T00:35:55.178Z,63.52
2022-08-17T00:40:59.681Z,63.45
2022-08-17T00:46:05.477Z,63.43
2022-08-17T00:51:13.184Z,63.66
2022-08-17T00:56:19.473Z,63.89
2022-08-17T01:01:21.364Z,64.86
2022-08-17T01:06:24.465Z,64.96
2022-08-17T01:11:26.805Z,66.15
2022-08-17T01:16:29.901Z,67.01
2022-08-17T01:21:37.217Z,67.61
2022-08-17T01:26:40.274Z,67.97
2022-08-17T01:31:46.467Z,68.07
2022-08-17T01:36:50.388Z,69.44
2022-08-17T01:41:57.220Z,70.24
2022-08-17T01:46:57.911Z,70.96
2022-08-17T01:52:07.217Z,71.61
2022-08-17T01:57:09.742Z,72.04
2022-08-17T02:02:10.362Z,72.38
2022-08-17T02:07:10.970Z,72.84
2022-08-17T02:12:37.733Z,72.72
2022-08-17T02:17:33.745Z,73.09
2022-08-17T02:22:35.755Z,73.38
2022-08-17T02:27:39.348Z,73.92
2022-08-17T02:32:40.397Z,73.62
2022-08-17T02:37:42.975Z,73.93
2022-08-17T02:42:50.229Z,74.70
2022-08-17T02:47:51.704Z,75.15
2022-08-17T02:53:02.084Z,75.40
2022-08-17T02:58:04.871Z,75.96
2022-08-17T03:03:07.071Z,76.34
2022-08-17T03:08:13.035Z,76.62
2022-08-17T03:13:15.919Z,77.37
2022-08-17T03:18:24.448Z,77.95
2022-08-17T03:23:29.425Z,77.44
2022-08-17T03:28:31.963Z,76.98
2022-08-17T03:33:32.941Z,77.01
2022-08-17T03:38:39.004Z,77.12
2022-08-17T03:43:41.437Z,75.85
2022-08-17T03:48:59.547Z,74.20
2022-08-17T03:54:18.535Z,74.66
2022-08-17T03:59:22.975Z,74.23
2022-08-17T04:04:27.744Z,74.82
2022-08-17T04:09:28.889Z,75.02
2022-08-17T04:14:36.082Z,74.84
2022-08-17T04:19:53.329Z,75.60
2022-08-17T04:24:53.957Z,75.10
2022-08-17T04:30:01.156Z,74.98
2022-08-17T04:35:01.808Z,75.00
2022-08-17T04:40:16.431Z,74.50
2022-08-17T04:45:18.389Z,74.38
2022-08-17T04:50:19.032Z,74.11
2022-08-17T04:55:19.926Z,74.39
2022-08-17T05:00:22.267Z,74.09
2022-08-17T05:05:26.383Z,74.51
2022-08-17T05:10:29.166Z,73.90
2022-08-17T05:15:32.981Z,73.37
2022-08-17T05:20:35.161Z,73.11
2022-08-17T05:25:39.482Z,73.04
2022-08-17T05:30:43.218Z,72.87
2022-08-17T05:35:46.977Z,71.60
2022-08-17T05:40:48.431Z,70.74
2022-08-17T05:46:01.244Z,70.71
2022-08-17T05:51:14.226Z,69.60
2022-08-17T05:56:29.867Z,68.43
2022-08-17T06:01:42.349Z,67.88
2022-08-17T06:06:51.637Z,67.30
2022-08-17T06:11:58.736Z,66.46
2022-08-17T06:17:05.450Z,65.21
2022-08-17T06:22:09.051Z,64.38
2022-08-17T06:27:14.731Z,63.72
2022-08-17T06:32:17.256Z,63.22
2022-08-17T06:37:59.698Z,62.76
2022-08-17T06:43:14.384Z,61.76
2022-08-17T06:48:25.400Z,60.71
2022-08-17T06:53:29.720Z,59.70
2022-08-17T06:58:33.253Z,58.41
2022-08-17T07:03:40.745Z,58.08
2022-08-17T07:08:55.981Z,57.67
2022-08-17T07:14:06.572Z,56.44
2022-08-17T07:19:10.850Z,55.88
2022-08-17T07:24:30.545Z,55.69
2022-08-17T07:29:33.124Z,54.55
2022-08-17T07:35:08.491Z,53.41
2022-08-17T07:40:18.980Z,52.92
2022-08-17T07:45:33.695Z,51.82
2022-08-17T07:50:35.696Z,51.27
2022-08-17T07:55:41.468Z,50.70
2022-08-17T08:00:43.155Z,48.81
2022-08-17T08:05:53.851Z,48.42
2022-08-17T08:11:10.434Z,48.37
2022-08-17T08:16:27.563Z,47.87
2022-08-17T08:21:43.804Z,47.22
2022-08-17T08:26:51.248Z,46.92
2022-08-17T08:32:03.604Z,46.99
2022-08-17T08:37:25.036Z,46.42
2022-08-17T08:42:43.224Z,46.27
2022-08-17T08:48:05.177Z,45.29
2022-08-17T08:53:23.499Z,45.28
2022-08-17T08:58:41.963Z,45.27
2022-08-17T09:04:11.797Z,43.13
2022-08-17T09:09:27.873Z,42.14
2022-08-17T09:14:45.382Z,41.93
2022-08-17T09:19:52.317Z,41.30
2022-08-17T09:24:58.433Z,39.71
2022-08-17T09:30:03.343Z,39.67
2022-08-17T09:35:11.038Z,38.03
2022-08-17T09:40:19.517Z,37.66
2022-08-17T09:45:32.937Z,37.11
2022-08-17T09:51:04.285Z,37.05
2022-08-17T09:56:13.676Z,34.86
2022-08-17T10:01:25.216Z,33.92
2022-08-17T10:06:30.824Z,34.10
2022-08-17T10:11:54.611Z,33.58
2022-08-17T10:17:06.014Z,32.61
2022-08-17T10:22:35.195Z,31.72
2022-08-17T10:27:48.659Z,31.93
2022-08-17T10:32:55.002Z,31.14
2022-08-17T10:38:40.840Z,30.73
2022-08-17T10:44:02.182Z,30.49
2022-08-17T10:49:25.309Z,31.68
2022-08-17T10:54:57.946Z,31.82
2022-08-17T11:00:01.838Z,32.47
2022-08-17T11:05:19.080Z,32.03
2022-08-17T11:10:51.844Z,31.44
2022-08-17T11:16:08.950Z,31.65
2022-08-17T11:21:26.470Z,31.46
2022-08-17T11:26:30.396Z,31.48
2022-08-17T11:31:39.322Z,30.50
2022-08-17T11:36:57.701Z,30.02
2022-08-17T11:42:05.865Z,29.87
2022-08-17T11:47:33.581Z,30.36
2022-08-17T11:52:40.990Z,29.96
2022-08-17T11:58:03.562Z,29.22
2022-08-17T12:03:24.874Z,29.48
2022-08-17T12:08:27.583Z,28.40
2022-08-17T12:13:34.609Z,28.98
2022-08-17T12:18:50.571Z,28.94
2022-08-17T12:23:58.215Z,29.42
2022-08-17T12:29:01.832Z,28.37
2022-08-17T12:34:05.560Z,28.38
2022-08-17T12:39:13.867Z,29.72
2022-08-17T12:44:18.183Z,29.83
2022-08-17T12:49:29.909Z,28.75
2022-08-17T12:54:39.569Z,28.53
2022-08-17T12:59:44.090Z,28.72
2022-08-17T13:04:47.465Z,27.41
2022-08-17T13:09:52.341Z,26.43
2022-08-17T13:14:53.021Z,27.42
2022-08-17T13:19:55.077Z,24.95
2022-08-17T13:24:58.212Z,26.61
2022-08-17T13:30:02.254Z,26.91
2022-08-17T13:35:44.272Z,26.48
2022-08-17T13:40:54.120Z,25.24
2022-08-17T13:46:07.800Z,25.47
2022-08-17T13:51:23.050Z,23.78
2022-08-17T13:56:49.995Z,23.73
2022-08-17T14:01:53.757Z,24.50
2022-08-17T14:06:58.872Z,25.90
2022-08-17T14:12:02.533Z,26.62
2022-08-17T14:17:03.588Z,26.43
2022-08-17T14:22:05.106Z,26.40
2022-08-17T14:27:09.037Z,26.52
2022-08-17T14:32:19.482Z,26.21
2022-08-17T14:37:21.785Z,26.20
2022-08-17T14:42:26.226Z,25.56
2022-08-17T14:47:27.514Z,25.38
2022-08-17T14:52:28.151Z,25.70
2022-08-17T14:57:33.691Z,25.89
2022-08-17T15:02:46.424Z,26.10
2022-08-17T15:07:47.060Z,26.44
2022-08-17T15:12:49.663Z,26.49
2022-08-17T15:17:51.190Z,24.36
2022-08-17T15:22:55.024Z,24.60
2022-08-17T15:27:57.522Z,25.32
2022-08-17T15:32:59.598Z,24.90
2022-08-17T15:38:10.541Z,25.63
2022-08-17T15:43:15.915Z,25.15
2022-08-17T15:48:18.617Z,25.96
2022-08-17T15:53:19.220Z,25.40
2022-08-17T15:58:21.144Z,25.99
2022-08-17T16:04:03.804Z,26.00
2022-08-17T16:08:56.053Z,24.16
2022-08-17T16:13:57.966Z,24.70
2022-08-17T16:18:58.890Z,26.47
2022-08-17T16:24:02.146Z,25.61
2022-08-17T16:29:07.653Z,25.67
2022-08-17T16:34:17.266Z,25.78
2022-08-17T16:39:19.222Z,24.81
2022-08-17T16:44:22.439Z,25.80
2022-08-17T16:49:35.841Z,27.75
2022-08-17T16:54:38.577Z,28.07
2022-08-17T16:59:44.936Z,28.66
2022-08-17T17:04:53.164Z,29.12
2022-08-17T17:09:55.416Z,30.13
2022-08-17T17:14:59.269Z,30.57
2022-08-17T17:20:07.716Z,30.78
2022-08-17T17:25:13.680Z,31.57
2022-08-17T17:30:20.649Z,33.14
2022-08-17T17:35:25.226Z,33.83
2022-08-17T17:40:32.866Z,34.75
2022-08-17T17:45:42.197Z,35.29
2022-08-17T17:50:48.958Z,35.90
2022-08-17T17:55:59.797Z,37.55
2022-08-17T18:01:23.398Z,38.60
2022-08-17T18:06:36.262Z,38.73
2022-08-17T18:12:03.338Z,40.41
2022-08-17T18:17:07.533Z,40.96
2022-08-17T18:22:14.442Z,41.88
2022-08-17T18:27:31.766Z,42.92
2022-08-17T18:32:36.969Z,42.38
2022-08-17T18:37:42.674Z,43.59
2022-08-17T18:42:45.772Z,44.04
2022-08-17T18:47:54.279Z,44.77
2022-08-17T18:52:56.108Z,46.49
2022-08-17T18:57:58.773Z,47.36
2022-08-17T19:03:03.077Z,47.71
2022-08-17T19:08:24.811Z,47.95
2022-08-17T19:13:29.405Z,48.09
2022-08-17T19:18:38.505Z,48.42
2022-08-17T19:23:53.822Z,48.39
2022-08-17T19:29:00.873Z,48.39
2022-08-17T19:34:03.980Z,49.13
2022-08-17T19:39:12.293Z,49.35
2022-08-17T19:44:26.962Z,49.07
2022-08-17T19:49:41.192Z,49.44
2022-08-17T19:54:47.951Z,50.09
2022-08-17T19:59:54.624Z,50.78
2022-08-17T20:05:01.002Z,50.60
2022-08-17T20:10:06.520Z,51.40
2022-08-17T20:15:11.140Z,51.49
2022-08-17T20:20:25.954Z,52.48
2022-08-17T20:25:36.003Z,52.34
2022-08-17T20:30:39.867Z,52.74
2022-08-17T20:36:02.856Z,52.85
2022-08-17T20:41:14.804Z,53.00
2022-08-17T20:46:35.060Z,53.73
2022-08-17T20:51:43.073Z,53.16
2022-08-17T20:57:02.415Z,53.27
2022-08-17T21:02:18.621Z,53.28
2022-08-17T21:07:30.047Z,52.48
2022-08-17T21:12:43.059Z,52.43
2022-08-17T21:17:51.385Z,52.54
2022-08-17T21:23:06.143Z,52.78
2022-08-17T21:28:14.751Z,52.75
2022-08-17T21:33:23.773Z,53.58
2022-08-17T21:38:37.849Z,54.31
2022-08-17T21:43:48.448Z,54.32
2022-08-17T21:48:49.307Z,54.42
2022-08-17T21:54:00.331Z,54.08
2022-08-17T21:59:04.278Z,54.00
2022-08-17T22:04:16.139Z,54.43
2022-08-17T22:09:22.001Z,54.94
2022-08-17T22:14:26.429Z,55.20
2022-08-17T22:19:51.410Z,55.43
2022-08-17T22:24:57.583Z,55.69
2022-08-17T22:29:59.813Z,55.91
2022-08-17T22:35:28.413Z,55.82
2022-08-17T22:40:33.014Z,56.10
2022-08-17T22:45:43.193Z,56.39
2022-08-17T22:50:43.844Z,56.35
2022-08-17T22:56:12.550Z,56.37
2022-08-17T23:01:32.449Z,56.59
2022-08-17T23:06:34.701Z,56.75
2022-08-17T23:11:49.547Z,57.10
2022-08-17T23:16:51.102Z,57.40
2022-08-17T23:21:55.202Z,57.41
2022-08-17T23:26:58.964Z,58.07
2022-08-17T23:32:04.657Z,58.49
2022-08-17T23:37:05.286Z,58.95
2022-08-17T23:42:10.185Z,59.56
2022-08-17T23:47:10.916Z,60.58
2022-08-17T23:52:16.500Z,60.42
2022-08-17T23:57:33.662Z,60.83
